Terminal Aerodrome Forecast
Issued by NWS Blacksburg, VA

Home | Current Version | Previous Version | Text Only | Print | Product List | Glossary On
Versions: 1 2 3 4 5 6 7 8 9 10 11 12 13 14 15 16 17 18 19 20 21 22 23 24 25 26 27 28 29 30 31 32 33 34 35 36 37 38 39 40 41
000
FTUS41 KRNK 171125
TAFBLF
TAF
KBLF 171125Z 1712/1812 06003KT 1/4SM FG VV001
      TEMPO 1712/1714 3SM BR SCT004
     FM171430 15003KT P6SM SCT007 BKN020
     FM171900 VRB03KT P6SM BKN040
     FM180000 14004KT P6SM SCT025
     FM180700 23003KT 2SM BR SCT002
     FM181000 VRB03KT 1/2SM FG BKN002=

USA.gov is the U.S. government's official web portal to all federal, state and local government web resources and services.